Poineer Square, Washington
Current Conditions -  °F | °C
As of 10:53 AM on Saturday 25 Oct 2014 (Local Time) from KBFI Reporting Station
Broken Clouds Broken Clouds  
Wind Chill: 57°   Ceiling: 12000
Heat Index: 57°   Visibility: 10mi
Dew Point: 50°   Wind: 5mph
Humidity: 77%   Direction: 290°WNW
Pressure: 29.44"   Gusts: NA
Location:  47.6024°N, 122.326°W
Report Text: KBFI 251753Z 29004KT 10SM BKN120 14/10 A2944 RMK AO2 SLP970 60004 T01390100 10144 20100 58041
Loading
Personal Weather Stations






























Interactive Weather Map
Tropical Storm Tracking
New forecast layout! Learn more

10-Day Weather Forecast

Advertisements
Track Severe Weather on mobile